createdAt,value
2018-04-10T00:01:13.761Z,57.27
2018-04-10T00:03:42.076Z,57.33
2018-04-10T00:06:10.434Z,57.51
2018-04-10T00:08:38.933Z,57.74
2018-04-10T00:11:07.313Z,58.23
2018-04-10T00:13:36.475Z,57.91
2018-04-10T00:16:04.852Z,58.07
2018-04-10T00:18:33.167Z,57.50
2018-04-10T00:21:01.495Z,57.96
2018-04-10T00:23:29.846Z,57.81
2018-04-10T00:25:59.076Z,58.53
2018-04-10T00:28:27.396Z,59.04
2018-04-10T00:30:55.811Z,58.59
2018-04-10T00:33:24.167Z,58.84
2018-04-10T00:35:52.506Z,58.27
2018-04-10T00:38:20.927Z,58.92
2018-04-10T00:40:49.570Z,58.60
2018-04-10T00:43:17.941Z,58.93
2018-04-10T00:45:46.284Z,58.51
2018-04-10T00:48:15.410Z,58.55
2018-04-10T00:50:43.724Z,58.35
2018-04-10T00:53:29.824Z,58.64
2018-04-10T00:55:58.160Z,58.95
2018-04-10T00:58:26.528Z,59.38
2018-04-10T01:00:54.947Z,58.67
2018-04-10T01:03:23.305Z,59.00
2018-04-10T01:05:51.656Z,58.31
2018-04-10T01:08:20.045Z,57.95
2018-04-10T01:10:48.439Z,58.71
2018-04-10T01:13:16.787Z,57.93
2018-04-10T01:15:46.141Z,58.02
2018-04-10T01:18:14.454Z,58.03
2018-04-10T01:20:42.806Z,58.02
2018-04-10T01:23:11.183Z,57.92
2018-04-10T01:25:39.528Z,58.05
2018-04-10T01:28:07.872Z,57.67
2018-04-10T01:30:36.996Z,57.34
2018-04-10T01:33:05.321Z,58.06
2018-04-10T01:35:34.419Z,57.32
2018-04-10T01:38:02.844Z,57.36
2018-04-10T01:40:31.164Z,57.22
2018-04-10T01:42:59.746Z,56.77
2018-04-10T01:45:28.116Z,56.92
2018-04-10T01:47:56.443Z,56.77
2018-04-10T01:50:24.779Z,56.79
2018-04-10T01:52:53.131Z,56.54
2018-04-10T01:55:21.662Z,56.24
2018-04-10T01:57:49.964Z,56.35
2018-04-10T02:00:18.853Z,56.19
2018-04-10T02:02:47.203Z,56.27
2018-04-10T02:05:16.346Z,56.24
2018-04-10T02:07:44.698Z,56.60
2018-04-10T02:10:13.009Z,55.96
2018-04-10T02:15:14.914Z,56.12
2018-04-10T02:17:43.248Z,56.26
2018-04-10T02:20:11.603Z,56.24
2018-04-10T02:22:40.698Z,56.23
2018-04-10T02:25:09.084Z,56.05
2018-04-10T02:27:38.150Z,55.96
2018-04-10T02:30:06.491Z,55.91
2018-04-10T02:32:34.816Z,56.00
2018-04-10T02:35:03.134Z,55.90
2018-04-10T02:37:31.474Z,56.27
2018-04-10T02:39:59.802Z,55.98
2018-04-10T02:42:28.108Z,55.98
2018-04-10T02:44:56.972Z,56.21
2018-04-10T02:47:25.302Z,56.23
2018-04-10T02:49:53.665Z,56.15
2018-04-10T02:52:22.007Z,56.82
2018-04-10T02:54:50.339Z,56.78
2018-04-10T02:57:19.495Z,56.85
2018-04-10T02:59:47.821Z,56.90
2018-04-10T03:02:16.166Z,56.77
2018-04-10T03:04:44.495Z,56.96
2018-04-10T03:07:13.117Z,57.07
2018-04-10T03:09:41.424Z,56.97
2018-04-10T03:12:09.731Z,57.09
2018-04-10T03:14:38.073Z,57.19
2018-04-10T03:17:06.399Z,57.03
2018-04-10T03:19:35.498Z,56.95
2018-04-10T03:22:03.864Z,57.11
2018-04-10T03:24:32.175Z,57.81
2018-04-10T03:27:00.535Z,57.59
2018-04-10T03:29:29.101Z,57.47
2018-04-10T03:31:57.430Z,57.49
2018-04-10T03:34:25.743Z,57.54
2018-04-10T03:36:54.093Z,57.56
2018-04-10T03:39:22.413Z,58.06
2018-04-10T03:41:51.550Z,58.13
2018-04-10T03:44:19.920Z,58.14
2018-04-10T03:46:48.236Z,58.21
2018-04-10T03:49:16.567Z,58.56
2018-04-10T03:51:45.417Z,58.47
2018-04-10T03:54:13.733Z,58.16
2018-04-10T03:56:42.044Z,59.02
2018-04-10T04:01:43.805Z,59.05
2018-04-10T04:04:12.169Z,58.81
2018-04-10T04:06:40.532Z,59.16
2018-04-10T04:09:09.628Z,58.92
2018-04-10T04:11:38.970Z,59.60
2018-04-10T04:14:07.313Z,59.57
2018-04-10T04:16:53.254Z,59.98
2018-04-10T04:19:39.108Z,60.35
2018-04-10T04:22:25.170Z,60.67
2018-04-10T04:24:53.527Z,60.71
2018-04-10T04:27:21.865Z,60.92
2018-04-10T04:29:50.654Z,60.73
2018-04-10T04:32:19.085Z,60.37
2018-04-10T04:34:47.440Z,60.33
2018-04-10T04:37:15.926Z,61.00
2018-04-10T04:39:44.259Z,60.69
2018-04-10T04:42:13.345Z,60.25
2018-04-10T04:44:42.443Z,60.10
2018-04-10T04:47:11.682Z,60.98
2018-04-10T04:49:40.073Z,60.37
2018-04-10T04:52:08.994Z,60.12
2018-04-10T04:54:37.472Z,59.96
2018-04-10T04:57:05.853Z,59.51
2018-04-10T04:59:35.165Z,59.96
2018-04-10T05:02:04.333Z,59.90
2018-04-10T05:04:32.684Z,59.76
2018-04-10T05:07:01.058Z,59.95
2018-04-10T05:09:29.394Z,59.62
2018-04-10T05:11:57.705Z,59.63
2018-04-10T05:14:26.229Z,59.92
2018-04-10T05:16:54.536Z,60.04
2018-04-10T05:19:22.858Z,59.34
2018-04-10T05:21:51.188Z,59.12
2018-04-10T05:24:19.521Z,59.11
2018-04-10T05:26:47.864Z,59.27
2018-04-10T05:29:16.991Z,59.38
2018-04-10T05:31:45.325Z,59.27
2018-04-10T05:34:13.648Z,59.23
2018-04-10T05:36:42.043Z,59.66
2018-04-10T05:39:10.375Z,59.31
2018-04-10T05:41:38.688Z,59.49
2018-04-10T05:44:07.031Z,59.31
2018-04-10T05:46:36.291Z,59.09
2018-04-10T05:49:04.634Z,58.79
2018-04-10T05:51:33.042Z,58.48
2018-04-10T05:54:01.354Z,57.93
2018-04-10T05:56:29.673Z,57.29
2018-04-10T05:58:58.451Z,57.40
2018-04-10T06:01:26.783Z,57.38
2018-04-10T06:03:55.166Z,56.46
2018-04-10T06:06:23.500Z,56.31
2018-04-10T06:08:51.822Z,55.71
2018-04-10T06:11:20.183Z,55.61
2018-04-10T06:13:48.540Z,55.61
2018-04-10T06:16:16.848Z,54.92
2018-04-10T06:18:45.170Z,54.15
2018-04-10T06:21:14.316Z,54.18
2018-04-10T06:23:42.637Z,54.21
2018-04-10T06:26:11.716Z,53.71
2018-04-10T06:28:40.066Z,53.90
2018-04-10T06:31:08.474Z,53.33
2018-04-10T06:33:36.840Z,53.57
2018-04-10T06:36:05.195Z,53.18
2018-04-10T06:38:33.529Z,53.56
2018-04-10T06:41:02.650Z,53.81
2018-04-10T06:43:31.152Z,53.32
2018-04-10T06:45:59.465Z,52.84
2018-04-10T06:48:27.974Z,52.55
2018-04-10T06:50:57.075Z,51.95
2018-04-10T06:53:26.144Z,51.23
2018-04-10T06:55:54.442Z,50.44
2018-04-10T06:58:23.600Z,50.26
2018-04-10T07:00:51.927Z,49.89
2018-04-10T07:03:20.249Z,49.77
2018-04-10T07:05:48.751Z,48.98
2018-04-10T07:08:17.101Z,48.36
2018-04-10T07:10:45.441Z,48.29
2018-04-10T07:13:13.811Z,47.17
2018-04-10T07:15:42.164Z,46.89
2018-04-10T07:18:10.476Z,46.85
2018-04-10T07:20:38.826Z,46.67
2018-04-10T07:23:07.164Z,45.56
2018-04-10T07:25:35.508Z,45.65
2018-04-10T07:28:05.000Z,45.36
2018-04-10T07:30:33.327Z,45.37
2018-04-10T07:33:01.826Z,45.35
2018-04-10T07:35:30.329Z,44.07
2018-04-10T07:37:58.660Z,43.79
2018-04-10T07:40:26.988Z,43.45
2018-04-10T07:42:55.388Z,42.78
2018-04-10T07:45:24.461Z,41.92
2018-04-10T07:47:52.800Z,41.14
2018-04-10T07:50:22.175Z,40.47
2018-04-10T07:52:50.542Z,40.17
2018-04-10T07:55:18.903Z,41.06
2018-04-10T07:57:47.289Z,40.30
2018-04-10T08:00:15.595Z,38.64
2018-04-10T08:02:44.669Z,37.90
2018-04-10T08:05:13.020Z,38.02
2018-04-10T08:07:41.431Z,36.72
2018-04-10T08:10:09.788Z,35.33
2018-04-10T08:12:38.507Z,34.47
2018-04-10T08:15:07.606Z,34.29
2018-04-10T08:17:35.908Z,33.47
2018-04-10T08:20:04.236Z,32.51
2018-04-10T08:22:32.598Z,31.92
2018-04-10T08:25:00.972Z,31.82
2018-04-10T08:27:29.349Z,33.64
2018-04-10T08:29:57.696Z,33.91
2018-04-10T08:32:26.027Z,33.50
2018-04-10T08:34:54.562Z,32.99
2018-04-10T08:37:22.895Z,32.72
2018-04-10T08:39:51.228Z,32.50
2018-04-10T08:42:19.581Z,32.53
2018-04-10T08:44:48.670Z,31.77
2018-04-10T08:47:17.758Z,31.58
2018-04-10T08:49:46.115Z,31.44
2018-04-10T08:52:14.470Z,31.09
2018-04-10T08:54:42.803Z,31.06
2018-04-10T08:57:12.409Z,30.31
2018-04-10T08:59:40.726Z,29.73
2018-04-10T09:02:09.080Z,28.94
2018-04-10T09:04:37.417Z,28.33
2018-04-10T09:07:05.743Z,27.68
2018-04-10T09:09:34.131Z,27.38
2018-04-10T09:12:03.238Z,26.42
2018-04-10T09:14:31.543Z,26.35
2018-04-10T09:16:59.846Z,25.70
2018-04-10T09:19:28.439Z,25.27
2018-04-10T09:21:57.581Z,25.49
2018-04-10T09:24:25.928Z,24.81
2018-04-10T09:26:54.295Z,24.36
2018-04-10T09:29:23.403Z,23.70
2018-04-10T09:31:52.479Z,23.83
2018-04-10T09:34:20.864Z,24.11
2018-04-10T09:36:49.195Z,23.33
2018-04-10T09:39:17.552Z,23.36
2018-04-10T09:41:45.983Z,23.65
2018-04-10T09:44:14.327Z,24.39
2018-04-10T09:46:42.677Z,24.64
2018-04-10T09:49:11.020Z,22.85
2018-04-10T09:51:39.351Z,22.76
2018-04-10T09:54:07.669Z,22.03
2018-04-10T09:56:36.007Z,22.10
2018-04-10T09:59:04.337Z,22.32
2018-04-10T10:01:32.666Z,22.23
2018-04-10T10:04:01.242Z,22.18
2018-04-10T10:06:29.591Z,21.35
2018-04-10T10:08:58.802Z,21.15
2018-04-10T10:11:27.170Z,22.15
2018-04-10T10:13:55.518Z,22.47
2018-04-10T10:16:23.827Z,21.11
2018-04-10T10:18:52.191Z,21.05
2018-04-10T10:21:21.302Z,21.49
2018-04-10T10:23:49.684Z,21.83
2018-04-10T10:26:18.184Z,21.85
2018-04-10T10:28:46.519Z,21.47
2018-04-10T10:31:14.849Z,22.60
2018-04-10T10:33:43.244Z,23.14
2018-04-10T10:36:11.559Z,23.37
2018-04-10T10:38:39.875Z,22.90
2018-04-10T10:41:08.995Z,22.19
2018-04-10T10:43:37.341Z,21.77
2018-04-10T10:46:05.680Z,20.99
2018-04-10T10:48:34.311Z,22.51
2018-04-10T10:51:02.663Z,21.43
2018-04-10T10:53:31.085Z,20.82
2018-04-10T10:55:59.437Z,20.22
2018-04-10T10:58:27.747Z,19.86
2018-04-10T11:00:56.063Z,20.63
2018-04-10T11:03:24.430Z,19.89
2018-04-10T11:05:52.779Z,21.11
2018-04-10T11:08:21.135Z,21.24
2018-04-10T11:10:49.823Z,20.99
2018-04-10T11:13:18.153Z,19.85
2018-04-10T11:15:46.468Z,19.57
2018-04-10T11:18:14.858Z,19.88
2018-04-10T11:20:44.176Z,20.38
2018-04-10T11:23:13.307Z,19.94
2018-04-10T11:25:41.692Z,19.44
2018-04-10T11:28:10.830Z,19.92
2018-04-10T11:30:39.164Z,20.09
2018-04-10T11:33:07.956Z,20.50
2018-04-10T11:35:36.278Z,20.57
2018-04-10T11:38:04.597Z,20.34
2018-04-10T11:40:32.968Z,21.47
2018-04-10T11:43:01.287Z,21.77
2018-04-10T11:45:29.649Z,21.94
2018-04-10T11:47:58.022Z,22.11
2018-04-10T11:50:26.328Z,22.30
2018-04-10T11:52:54.646Z,21.49
2018-04-10T11:55:24.233Z,21.18
2018-04-10T11:57:52.543Z,20.87
2018-04-10T12:00:20.850Z,21.45
2018-04-10T12:02:49.218Z,21.32
2018-04-10T12:05:17.563Z,21.08
2018-04-10T12:07:46.627Z,21.09
2018-04-10T12:10:14.994Z,22.12
2018-04-10T12:12:43.322Z,22.16
2018-04-10T12:15:11.649Z,21.43
2018-04-10T12:17:40.299Z,21.55
2018-04-10T12:20:08.635Z,21.68
2018-04-10T12:22:36.972Z,22.22
2018-04-10T12:25:05.308Z,23.06
2018-04-10T12:27:33.632Z,23.43
2018-04-10T12:30:01.949Z,23.57
2018-04-10T12:32:30.307Z,24.32
2018-04-10T12:34:58.613Z,23.45
2018-04-10T12:37:26.942Z,24.01
2018-04-10T12:39:55.379Z,23.72
2018-04-10T12:42:23.712Z,24.24
2018-04-10T12:44:52.057Z,23.68
2018-04-10T12:47:20.427Z,22.36
2018-04-10T12:49:49.505Z,23.62
2018-04-10T12:52:17.815Z,24.57
2018-04-10T12:54:46.174Z,25.52
2018-04-10T12:57:15.287Z,26.78
2018-04-10T12:59:43.625Z,27.17
2018-04-10T13:02:12.168Z,26.71
2018-04-10T13:04:40.506Z,26.17
2018-04-10T13:07:08.803Z,25.50
2018-04-10T13:09:37.921Z,26.12
2018-04-10T13:12:06.239Z,26.37
2018-04-10T13:14:34.559Z,26.74
2018-04-10T13:17:02.901Z,27.15
2018-04-10T13:19:31.207Z,27.43
2018-04-10T13:21:59.527Z,27.42
2018-04-10T13:24:28.251Z,28.37
2018-04-10T13:26:56.564Z,29.00
2018-04-10T13:29:24.912Z,29.39
2018-04-10T13:31:53.284Z,28.80
2018-04-10T13:34:21.658Z,28.86
2018-04-10T13:36:50.019Z,28.59
2018-04-10T13:39:18.357Z,29.71
2018-04-10T13:41:46.675Z,30.19
2018-04-10T13:44:14.994Z,30.59
2018-04-10T13:46:44.192Z,30.85
2018-04-10T13:49:12.596Z,31.68
2018-04-10T13:51:41.672Z,32.87
2018-04-10T13:54:10.779Z,31.91
2018-04-10T13:56:40.262Z,31.97
2018-04-10T13:59:08.599Z,32.42
2018-04-10T14:01:36.937Z,32.82
2018-04-10T14:04:05.281Z,33.62
2018-04-10T14:06:33.653Z,34.43
2018-04-10T14:09:02.200Z,34.90
2018-04-10T14:11:30.569Z,35.22
2018-04-10T14:13:58.925Z,35.01
2018-04-10T14:16:27.290Z,34.81
2018-04-10T14:18:55.643Z,35.14
2018-04-10T14:21:23.967Z,35.22
2018-04-10T14:23:53.094Z,35.40
2018-04-10T14:26:21.444Z,35.53
2018-04-10T14:28:50.532Z,35.24
2018-04-10T14:31:19.011Z,35.46
2018-04-10T14:33:47.316Z,35.90
2018-04-10T14:36:16.398Z,35.71
2018-04-10T14:38:45.551Z,35.92
2018-04-10T14:41:13.902Z,36.65
2018-04-10T14:43:42.247Z,36.33
2018-04-10T14:46:11.366Z,36.96
2018-04-10T14:48:39.697Z,36.52
2018-04-10T14:51:08.044Z,36.54
2018-04-10T14:53:36.668Z,36.03
2018-04-10T14:56:04.973Z,36.16
2018-04-10T14:58:33.410Z,36.40
2018-04-10T15:01:01.789Z,36.29
2018-04-10T15:03:30.100Z,37.44
2018-04-10T15:05:58.432Z,37.52
2018-04-10T15:08:26.839Z,37.70
2018-04-10T15:10:55.175Z,38.30
2018-04-10T15:13:23.498Z,38.31
2018-04-10T15:15:51.910Z,38.72
2018-04-10T15:18:20.260Z,38.90
2018-04-10T15:20:48.607Z,38.85
2018-04-10T15:23:16.932Z,39.35
2018-04-10T15:25:45.245Z,38.89
2018-04-10T15:28:13.568Z,38.57
2018-04-10T15:30:41.937Z,38.63
2018-04-10T15:33:10.246Z,39.05
2018-04-10T15:35:38.583Z,40.08
2018-04-10T15:38:07.004Z,40.10
2018-04-10T15:40:36.073Z,40.61
2018-04-10T15:43:04.395Z,40.82
2018-04-10T15:45:33.503Z,40.80
2018-04-10T15:48:01.847Z,40.45
2018-04-10T15:50:30.194Z,40.91
2018-04-10T15:52:58.564Z,41.84
2018-04-10T15:55:26.914Z,42.54
2018-04-10T15:57:55.238Z,42.61
2018-04-10T16:00:24.257Z,42.92
2018-04-10T16:02:52.604Z,43.69
2018-04-10T16:05:20.965Z,43.67
2018-04-10T16:07:49.315Z,43.85
2018-04-10T16:10:17.663Z,44.64
2018-04-10T16:12:46.000Z,45.06
2018-04-10T16:15:14.355Z,45.29
2018-04-10T16:17:42.681Z,45.58
2018-04-10T16:20:10.975Z,45.70
2018-04-10T16:22:39.508Z,45.79
2018-04-10T16:25:07.820Z,45.05
2018-04-10T16:27:36.148Z,45.57
2018-04-10T16:30:04.511Z,45.55
2018-04-10T16:32:33.590Z,46.70
2018-04-10T16:35:01.896Z,46.99
2018-04-10T16:37:31.007Z,47.02
2018-04-10T16:40:00.108Z,47.50
2018-04-10T16:42:28.444Z,47.96
2018-04-10T16:44:56.859Z,48.14
2018-04-10T16:47:25.958Z,48.41
2018-04-10T16:49:54.296Z,48.97
2018-04-10T16:52:22.621Z,48.67
2018-04-10T16:54:51.027Z,48.11
2018-04-10T16:57:19.356Z,48.85
2018-04-10T16:59:48.473Z,49.44
2018-04-10T17:02:16.779Z,50.10
2018-04-10T17:04:45.116Z,50.61
2018-04-10T17:07:14.576Z,49.91
2018-04-10T17:09:42.913Z,50.04
2018-04-10T17:12:11.255Z,50.87
2018-04-10T17:14:39.658Z,52.47
2018-04-10T17:17:08.793Z,52.36
2018-04-10T17:19:38.854Z,52.45
2018-04-10T17:22:07.231Z,53.09
2018-04-10T17:24:35.588Z,53.08
2018-04-10T17:27:03.950Z,52.92
2018-04-10T17:29:33.526Z,52.42
2018-04-10T17:32:01.891Z,53.36
2018-04-10T17:34:31.077Z,53.42
2018-04-10T17:36:59.521Z,53.87
2018-04-10T17:39:27.849Z,54.35
2018-04-10T17:41:56.212Z,54.89
2018-04-10T17:44:24.610Z,55.08
2018-04-10T17:46:52.937Z,55.87
2018-04-10T17:49:21.247Z,56.40
2018-04-10T17:51:50.429Z,56.58
2018-04-10T17:54:18.745Z,56.73
2018-04-10T17:56:47.066Z,57.01
2018-04-10T17:59:15.408Z,57.31
2018-04-10T18:01:44.901Z,57.35
2018-04-10T18:04:14.005Z,57.53
2018-04-10T18:06:43.140Z,57.75
2018-04-10T18:09:11.476Z,58.33
2018-04-10T18:11:40.563Z,58.54
2018-04-10T18:14:09.195Z,58.65
2018-04-10T18:16:37.521Z,59.29
2018-04-10T18:19:05.876Z,58.62
2018-04-10T18:21:34.230Z,58.91
2018-04-10T18:24:02.573Z,59.88
2018-04-10T18:26:31.664Z,60.37
2018-04-10T18:29:00.047Z,60.14
2018-04-10T18:31:29.133Z,59.96
2018-04-10T18:33:57.487Z,60.45
2018-04-10T18:36:25.952Z,60.65
2018-04-10T18:38:54.291Z,61.15
2018-04-10T18:41:22.618Z,60.51
2018-04-10T18:43:50.996Z,60.30
2018-04-10T18:46:19.343Z,61.88
2018-04-10T18:48:47.681Z,61.49
2018-04-10T18:51:16.040Z,62.00
2018-04-10T18:53:44.390Z,63.06
2018-04-10T18:56:12.848Z,63.28
2018-04-10T18:58:42.096Z,63.42
2018-04-10T19:01:10.514Z,64.15
2018-04-10T19:03:40.226Z,64.36
2018-04-10T19:06:08.795Z,63.53
2018-04-10T19:08:37.155Z,63.51
2018-04-10T19:11:05.532Z,64.37
2018-04-10T19:13:33.971Z,63.82
2018-04-10T19:16:02.299Z,63.18
2018-04-10T19:18:30.669Z,63.74
2018-04-10T19:20:59.442Z,63.01
2018-04-10T19:23:27.881Z,63.01
2018-04-10T19:25:57.085Z,63.49
2018-04-10T19:28:25.459Z,64.42
2018-04-10T19:30:54.582Z,64.23
2018-04-10T19:33:22.960Z,64.80
2018-04-10T19:35:51.295Z,65.02
2018-04-10T19:38:19.641Z,65.59
2018-04-10T19:40:47.987Z,65.76
2018-04-10T19:43:17.391Z,65.56
2018-04-10T19:45:46.520Z,64.69
2018-04-10T19:48:15.747Z,65.74
2018-04-10T19:50:44.396Z,65.94
2018-04-10T19:53:12.812Z,65.71
2018-04-10T19:55:41.122Z,66.06
2018-04-10T19:58:10.312Z,66.42
2018-04-10T20:00:38.652Z,66.62
2018-04-10T20:03:06.984Z,66.30
2018-04-10T20:05:36.037Z,65.99
2018-04-10T20:08:04.357Z,66.88
2018-04-10T20:10:32.679Z,67.91
2018-04-10T20:13:01.018Z,67.60
2018-04-10T20:15:29.340Z,68.00
2018-04-10T20:17:57.668Z,68.16
2018-04-10T20:20:26.761Z,68.03
2018-04-10T20:22:55.083Z,67.20
2018-04-10T20:25:23.391Z,67.03
2018-04-10T20:27:51.895Z,67.22
2018-04-10T20:30:21.017Z,67.06
2018-04-10T20:32:49.335Z,67.35
2018-04-10T20:35:17.716Z,67.40
2018-04-10T20:37:46.067Z,67.46
2018-04-10T20:40:14.552Z,67.86
2018-04-10T20:42:42.879Z,68.23
2018-04-10T20:45:11.246Z,67.98
2018-04-10T20:47:39.585Z,67.53
2018-04-10T20:50:08.434Z,66.72
2018-04-10T20:52:37.524Z,67.29
2018-04-10T20:55:05.863Z,67.35
2018-04-10T20:57:34.219Z,68.07
2018-04-10T21:00:02.528Z,67.28
2018-04-10T21:02:30.856Z,67.60
2018-04-10T21:04:59.991Z,66.46
2018-04-10T21:07:28.341Z,66.56
2018-04-10T21:09:56.726Z,66.33
2018-04-10T21:12:25.191Z,66.70
2018-04-10T21:14:53.582Z,66.36
2018-04-10T21:17:21.951Z,67.12
2018-04-10T21:19:51.093Z,66.83
2018-04-10T21:22:19.423Z,67.69
2018-04-10T21:24:48.941Z,67.51
2018-04-10T21:27:17.352Z,67.92
2018-04-10T21:29:45.665Z,67.39
2018-04-10T21:32:13.984Z,67.62
2018-04-10T21:34:42.738Z,67.21
2018-04-10T21:37:11.055Z,66.55
2018-04-10T21:39:39.443Z,67.18
2018-04-10T21:42:07.888Z,66.96
2018-04-10T21:44:36.246Z,66.97
2018-04-10T21:47:05.200Z,67.26
2018-04-10T21:49:33.880Z,67.09
2018-04-10T21:52:02.183Z,67.08
2018-04-10T21:54:30.799Z,67.25
2018-04-10T21:57:00.137Z,66.97
2018-04-10T21:59:28.487Z,66.65
2018-04-10T22:01:56.958Z,66.74
2018-04-10T22:04:25.354Z,66.48
2018-04-10T22:06:54.611Z,66.61
2018-04-10T22:09:22.975Z,67.42
2018-04-10T22:11:51.333Z,67.89
2018-04-10T22:14:19.719Z,68.02
2018-04-10T22:16:48.257Z,67.75
2018-04-10T22:19:17.159Z,67.56
2018-04-10T22:21:46.411Z,67.87
2018-04-10T22:24:14.792Z,67.33
2018-04-10T22:26:43.276Z,66.92
2018-04-10T22:29:11.766Z,67.34
2018-04-10T22:31:40.172Z,67.04
2018-04-10T22:34:08.643Z,67.19
2018-04-10T22:36:37.852Z,66.74
2018-04-10T22:39:07.097Z,66.75
2018-04-10T22:41:35.717Z,66.58
2018-04-10T22:44:04.125Z,66.66
2018-04-10T22:46:32.631Z,67.18
2018-04-10T22:49:01.053Z,67.07
2018-04-10T22:51:29.534Z,67.67
2018-04-10T22:53:57.935Z,67.74
2018-04-10T22:56:27.123Z,67.53
2018-04-10T22:58:56.319Z,67.35
2018-04-10T23:01:24.704Z,67.39
2018-04-10T23:03:53.331Z,66.45
2018-04-10T23:06:21.638Z,66.76
2018-04-10T23:08:50.360Z,67.07
2018-04-10T23:11:18.722Z,67.46
2018-04-10T23:13:47.044Z,67.21
2018-04-10T23:16:15.406Z,67.32
2018-04-10T23:18:43.760Z,67.31
2018-04-10T23:21:12.088Z,67.20
2018-04-10T23:23:41.177Z,67.60
2018-04-10T23:26:09.638Z,68.33
2018-04-10T23:28:37.979Z,68.52
2018-04-10T23:31:06.298Z,67.86
2018-04-10T23:33:34.656Z,67.98
2018-04-10T23:36:02.975Z,67.24
2018-04-10T23:38:31.282Z,67.52
2018-04-10T23:40:59.657Z,67.84
2018-04-10T23:43:27.988Z,68.27
2018-04-10T23:45:56.314Z,68.65
2018-04-10T23:48:24.736Z,68.05
2018-04-10T23:50:53.063Z,68.48
2018-04-10T23:53:21.378Z,68.43
2018-04-10T23:55:49.735Z,68.25
2018-04-10T23:58:18.052Z,68.50
